Time;durP1;ratioP1;P1;durP2;ratioP2;P2;SDS_P1;SDS_P2;PMS_P1;PMS_P2;Temp;Humidity;BMP_temperature;BMP_pressure;BME280_temperature;BME280_humidity;BME280_pressure;Samples;Min_cycle;Max_cycle;Signal;HPM_P1;HPM_P2
2023/08/17 00:02:12;;;;;;;;;;;16.30;99.90;;;;;;5031026;28;19948;-78
2023/08/17 00:04:37;;;;;;;;;;;16.30;99.90;;;;;;5040919;28;20384;-77
2023/08/17 00:07:03;;;;;;;;;;;16.30;99.90;;;;;;5015981;28;19940;-78
2023/08/17 00:09:28;;;;;;;;;;;16.30;99.90;;;;;;5034848;28;19940;-78
2023/08/17 00:11:54;;;;;;;;;;;16.30;99.90;;;;;;5016323;28;19936;-78
2023/08/17 00:14:20;;;;;;;;;;;16.30;99.90;;;;;;5068717;28;19925;-78
2023/08/17 00:16:46;;;;;;;;;;;16.20;99.90;;;;;;5038078;28;19925;-78
2023/08/17 00:19:11;;;;;;;;;;;16.30;99.90;;;;;;5067769;28;20293;-78
2023/08/17 00:21:37;;;;;;;;;;;16.20;99.90;;;;;;5065535;28;19925;-78
2023/08/17 00:24:03;;;;;;;;;;;16.20;99.90;;;;;;5036132;28;20443;-78
2023/08/17 00:26:29;;;;;;;;;;;16.20;99.90;;;;;;5038620;28;20308;-78
2023/08/17 00:28:54;;;;;;;;;;;16.20;99.90;;;;;;5038354;28;19925;-78
2023/08/17 00:31:20;;;;;;;;;;;16.10;99.90;;;;;;5066268;28;19925;-79
2023/08/17 00:33:45;;;;;;;;;;;16.10;99.90;;;;;;5035647;28;19948;-78
2023/08/17 00:36:11;;;;;;;;;;;16.10;99.90;;;;;;5023646;28;20048;-78
2023/08/17 00:38:37;;;;;;;;;;;16.10;99.90;;;;;;5027113;28;19936;-78
2023/08/17 00:41:02;;;;;;;;;;;16.10;99.90;;;;;;5038388;28;20021;-78
2023/08/17 00:43:28;;;;;;;;;;;16.10;99.90;;;;;;5007429;28;19929;-78
2023/08/17 00:45:53;;;;;;;;;;;16.10;99.90;;;;;;5035366;28;19926;-79
2023/08/17 00:48:19;;;;;;;;;;;16.10;99.90;;;;;;5022708;28;20396;-78
2023/08/17 00:50:47;;;;;;;;;;;16.10;99.90;;;;;;5067058;28;19936;-78
2023/08/17 00:53:13;;;;;;;;;;;16.00;99.90;;;;;;5049361;28;19932;-79
2023/08/17 00:55:39;;;;;;;;;;;16.00;99.90;;;;;;5023404;28;20023;-78
2023/08/17 00:58:05;;;;;;;;;;;16.00;99.90;;;;;;5042103;28;19936;-79
2023/08/17 01:00:31;;;;;;;;;;;16.00;99.90;;;;;;5058099;28;19929;-78
2023/08/17 01:02:57;;;;;;;;;;;16.00;99.90;;;;;;5038755;28;19955;-78
2023/08/17 01:05:23;;;;;;;;;;;16.00;99.90;;;;;;5035576;28;19925;-78
2023/08/17 01:07:49;;;;;;;;;;;16.00;99.90;;;;;;5048012;28;20111;-78
2023/08/17 01:10:14;;;;;;;;;;;16.00;99.90;;;;;;5034490;28;19980;-78
2023/08/17 01:12:40;;;;;;;;;;;16.00;99.90;;;;;;5034417;28;19968;-78
2023/08/17 01:15:16;;;;;;;;;;;15.90;99.90;;;;;;5051403;28;19925;-78
2023/08/17 01:17:43;;;;;;;;;;;15.90;99.90;;;;;;5019892;28;20023;-78
2023/08/17 01:20:12;;;;;;;;;;;15.90;99.90;;;;;;5034927;28;19975;-78
2023/08/17 01:22:40;;;;;;;;;;;15.90;99.90;;;;;;5017109;28;19929;-79
2023/08/17 01:25:06;;;;;;;;;;;15.90;99.90;;;;;;5031548;28;19925;-78
2023/08/17 01:27:36;;;;;;;;;;;15.80;99.90;;;;;;5067773;28;19933;-77
2023/08/17 01:30:02;;;;;;;;;;;15.80;99.90;;;;;;5052651;28;20304;-77
2023/08/17 01:32:30;;;;;;;;;;;15.80;99.90;;;;;;5055089;28;19968;-77
2023/08/17 01:35:04;;;;;;;;;;;15.80;99.90;;;;;;5038873;28;20384;-77
2023/08/17 01:37:31;;;;;;;;;;;15.70;99.90;;;;;;5038602;28;19925;-78
2023/08/17 01:39:57;;;;;;;;;;;15.70;99.90;;;;;;5039570;28;19971;-78
2023/08/17 01:42:24;;;;;;;;;;;15.70;99.90;;;;;;5038391;28;19970;-78
2023/08/17 01:44:49;;;;;;;;;;;15.70;99.90;;;;;;5039085;28;19925;-78
2023/08/17 01:47:15;;;;;;;;;;;15.70;99.90;;;;;;5020229;28;19925;-79
2023/08/17 01:49:40;;;;;;;;;;;15.70;99.90;;;;;;5038330;28;19929;-78
2023/08/17 01:52:06;;;;;;;;;;;15.60;99.90;;;;;;5039487;28;19975;-78
2023/08/17 01:54:32;;;;;;;;;;;15.60;99.90;;;;;;5037951;28;19925;-79
2023/08/17 01:56:57;;;;;;;;;;;15.50;99.90;;;;;;5036774;28;19951;-78
2023/08/17 01:59:23;;;;;;;;;;;15.50;99.90;;;;;;5021545;28;19925;-78
2023/08/17 02:01:48;;;;;;;;;;;15.60;99.90;;;;;;5017446;28;19943;-78
2023/08/17 02:04:14;;;;;;;;;;;15.60;99.90;;;;;;5050734;28;19929;-78
2023/08/17 02:06:40;;;;;;;;;;;15.60;99.90;;;;;;5019124;28;19929;-79
2023/08/17 02:09:05;;;;;;;;;;;15.60;99.90;;;;;;5002455;28;19936;-78
2023/08/17 02:11:31;;;;;;;;;;;15.60;99.90;;;;;;5017408;28;20087;-79
2023/08/17 02:13:56;;;;;;;;;;;15.60;99.90;;;;;;5050508;28;19940;-78
2023/08/17 02:16:22;;;;;;;;;;;15.60;99.90;;;;;;5065390;28;19957;-78
2023/08/17 02:18:48;;;;;;;;;;;15.70;99.90;;;;;;5015845;28;19936;-78
2023/08/17 02:21:13;;;;;;;;;;;15.70;99.90;;;;;;5033539;28;19932;-78
2023/08/17 02:23:39;;;;;;;;;;;15.70;99.90;;;;;;5020802;28;19933;-78
2023/08/17 02:26:04;;;;;;;;;;;15.70;99.90;;;;;;5033858;28;19929;-78
2023/08/17 02:28:30;;;;;;;;;;;15.70;99.90;;;;;;5031405;28;19929;-78
2023/08/17 02:30:56;;;;;;;;;;;15.80;99.90;;;;;;5034133;28;19989;-79
2023/08/17 02:33:22;;;;;;;;;;;15.80;99.90;;;;;;5033469;28;19925;-78
2023/08/17 02:35:51;;;;;;;;;;;15.80;99.90;;;;;;5044559;28;19933;-78
2023/08/17 02:38:17;;;;;;;;;;;15.80;99.90;;;;;;5035583;28;19952;-78
2023/08/17 02:40:43;;;;;;;;;;;15.80;99.90;;;;;;5041873;28;19925;-78
2023/08/17 02:43:08;;;;;;;;;;;15.80;99.90;;;;;;5039038;28;19939;-78
2023/08/17 02:45:34;;;;;;;;;;;15.80;99.90;;;;;;5022324;28;19929;-78
2023/08/17 02:48:00;;;;;;;;;;;15.80;99.90;;;;;;5034987;28;19929;-78
2023/08/17 02:50:25;;;;;;;;;;;15.80;99.90;;;;;;5015877;28;19936;-79
2023/08/17 02:52:51;;;;;;;;;;;15.90;99.90;;;;;;5014949;28;19959;-79
2023/08/17 02:55:16;;;;;;;;;;;15.80;99.90;;;;;;5019899;28;19925;-78
2023/08/17 02:57:42;;;;;;;;;;;15.90;99.90;;;;;;5039900;28;19925;-78
2023/08/17 03:00:08;;;;;;;;;;;15.90;99.90;;;;;;5049702;28;19964;-78
2023/08/17 03:02:34;;;;;;;;;;;15.90;99.90;;;;;;5040435;28;19959;-78
2023/08/17 03:04:59;;;;;;;;;;;15.90;99.90;;;;;;5065978;28;19929;-78
2023/08/17 03:07:25;;;;;;;;;;;15.90;99.90;;;;;;5032520;28;19967;-78
2023/08/17 03:09:50;;;;;;;;;;;15.90;99.90;;;;;;5016018;28;19929;-78
2023/08/17 03:12:16;;;;;;;;;;;15.90;99.90;;;;;;5033138;28;19932;-79
2023/08/17 03:14:42;;;;;;;;;;;15.90;99.90;;;;;;5019071;28;19929;-78
2023/08/17 03:17:07;;;;;;;;;;;15.90;99.90;;;;;;5065344;28;19936;-79
2023/08/17 03:19:33;;;;;;;;;;;15.90;99.90;;;;;;5032520;28;19967;-78
2023/08/17 03:21:58;;;;;;;;;;;15.90;99.90;;;;;;5016123;28;20001;-78
2023/08/17 03:24:24;;;;;;;;;;;15.90;99.90;;;;;;5034551;28;19987;-78
2023/08/17 03:26:49;;;;;;;;;;;15.90;99.90;;;;;;5035177;28;20000;-78
2023/08/17 03:29:15;;;;;;;;;;;16.00;99.90;;;;;;5046272;28;20352;-78
2023/08/17 03:31:41;;;;;;;;;;;16.00;99.90;;;;;;5032083;28;19971;-78
2023/08/17 03:34:06;;;;;;;;;;;16.00;99.90;;;;;;5030428;28;20000;-78
2023/08/17 03:36:32;;;;;;;;;;;16.00;99.90;;;;;;5065333;28;19988;-79
2023/08/17 03:38:57;;;;;;;;;;;16.00;99.90;;;;;;5047047;28;19935;-78
2023/08/17 03:41:24;;;;;;;;;;;16.00;99.90;;;;;;5014054;28;19987;-78
2023/08/17 03:43:49;;;;;;;;;;;16.00;99.90;;;;;;5068191;28;19953;-79
2023/08/17 03:46:15;;;;;;;;;;;16.00;99.90;;;;;;5038767;28;19994;-78
2023/08/17 03:48:40;;;;;;;;;;;16.00;99.90;;;;;;5070546;28;19925;-79
2023/08/17 03:51:06;;;;;;;;;;;15.90;99.90;;;;;;5033915;28;19947;-78
2023/08/17 03:53:31;;;;;;;;;;;15.90;99.90;;;;;;5068316;28;19929;-79
2023/08/17 03:55:57;;;;;;;;;;;16.00;99.90;;;;;;5023249;28;20326;-78
2023/08/17 03:58:23;;;;;;;;;;;16.00;99.90;;;;;;5068824;28;19988;-78
2023/08/17 04:00:49;;;;;;;;;;;16.00;99.90;;;;;;5022830;28;19933;-78
2023/08/17 04:03:14;;;;;;;;;;;16.00;99.90;;;;;;5017349;28;19925;-78
2023/08/17 04:05:40;;;;;;;;;;;16.00;99.90;;;;;;5035425;28;19933;-79
2023/08/17 04:08:05;;;;;;;;;;;16.00;99.90;;;;;;5054204;28;19925;-78
2023/08/17 04:10:31;;;;;;;;;;;16.00;99.90;;;;;;5028015;28;19933;-79
2023/08/17 04:12:57;;;;;;;;;;;16.00;99.90;;;;;;5009445;28;19996;-79
2023/08/17 04:15:22;;;;;;;;;;;16.00;99.90;;;;;;5069352;28;19929;-79
2023/08/17 04:17:48;;;;;;;;;;;16.00;99.90;;;;;;5057690;28;20493;-79
2023/08/17 04:20:13;;;;;;;;;;;16.00;99.90;;;;;;5068774;28;19959;-79
2023/08/17 04:22:39;;;;;;;;;;;16.00;99.90;;;;;;5057748;28;19979;-79
2023/08/17 04:25:05;;;;;;;;;;;16.00;99.90;;;;;;5054933;28;19925;-79
2023/08/17 04:27:30;;;;;;;;;;;16.00;99.90;;;;;;5040146;28;20463;-79
2023/08/17 04:29:57;;;;;;;;;;;16.00;99.90;;;;;;5056438;28;19979;-79
2023/08/17 04:32:22;;;;;;;;;;;16.00;99.90;;;;;;5072848;28;19926;-79
2023/08/17 04:34:48;;;;;;;;;;;16.00;99.90;;;;;;5037185;28;19940;-79
2023/08/17 04:37:14;;;;;;;;;;;16.00;99.90;;;;;;5035785;28;19932;-79
2023/08/17 04:39:40;;;;;;;;;;;16.00;99.90;;;;;;5040480;28;19929;-79
2023/08/17 04:42:06;;;;;;;;;;;16.00;99.90;;;;;;5072637;28;19933;-79
2023/08/17 04:44:32;;;;;;;;;;;16.00;99.90;;;;;;5039093;28;19993;-79
2023/08/17 04:46:57;;;;;;;;;;;16.00;99.90;;;;;;5039055;28;19996;-79
2023/08/17 04:49:23;;;;;;;;;;;16.00;99.90;;;;;;5049016;28;20162;-80
2023/08/17 04:51:48;;;;;;;;;;;16.00;99.90;;;;;;5040614;28;19936;-79
2023/08/17 04:54:14;;;;;;;;;;;16.00;99.90;;;;;;5055314;28;19983;-79
2023/08/17 04:56:40;;;;;;;;;;;16.00;99.90;;;;;;5032479;28;19935;-79
2023/08/17 04:59:05;;;;;;;;;;;16.10;99.90;;;;;;5039283;28;19933;-78
2023/08/17 05:01:31;;;;;;;;;;;16.10;99.90;;;;;;5057631;28;19944;-79
2023/08/17 05:03:57;;;;;;;;;;;16.10;99.90;;;;;;5026427;28;19984;-79
2023/08/17 05:06:23;;;;;;;;;;;16.10;99.90;;;;;;5033718;28;20002;-79
2023/08/17 05:08:48;;;;;;;;;;;16.10;99.90;;;;;;5038501;28;19933;-79
2023/08/17 05:11:14;;;;;;;;;;;16.10;99.90;;;;;;5036881;28;19929;-79
2023/08/17 05:13:39;;;;;;;;;;;16.10;99.90;;;;;;5035450;28;19933;-79
2023/08/17 05:16:05;;;;;;;;;;;16.10;99.90;;;;;;5000764;28;19944;-79
2023/08/17 05:18:31;;;;;;;;;;;16.10;99.90;;;;;;5051120;28;19932;-79
2023/08/17 05:20:56;;;;;;;;;;;16.10;99.90;;;;;;5035705;28;20403;-79
2023/08/17 05:23:22;;;;;;;;;;;16.20;99.90;;;;;;5019912;28;19940;-79
2023/08/17 05:25:47;;;;;;;;;;;16.20;99.90;;;;;;5035555;28;19929;-79
2023/08/17 05:28:13;;;;;;;;;;;16.20;99.90;;;;;;5017415;28;21392;-79
2023/08/17 05:30:39;;;;;;;;;;;16.20;99.90;;;;;;5043830;28;20408;-79
2023/08/17 05:33:05;;;;;;;;;;;16.20;99.90;;;;;;5071892;28;20342;-79
2023/08/17 05:35:30;;;;;;;;;;;16.20;99.90;;;;;;5039431;28;19929;-79
2023/08/17 05:37:56;;;;;;;;;;;16.20;99.90;;;;;;5053578;28;19964;-79
2023/08/17 05:40:21;;;;;;;;;;;16.20;99.90;;;;;;5039356;28;19935;-79
2023/08/17 05:42:47;;;;;;;;;;;16.20;99.90;;;;;;5072621;28;19925;-78
2023/08/17 05:45:12;;;;;;;;;;;16.20;99.90;;;;;;5038959;28;19933;-79
2023/08/17 05:47:38;;;;;;;;;;;16.20;99.90;;;;;;5054807;28;20372;-78
2023/08/17 05:50:04;;;;;;;;;;;16.20;99.90;;;;;;5013005;28;20244;-79
2023/08/17 05:52:29;;;;;;;;;;;16.20;99.90;;;;;;5051642;28;20537;-79
2023/08/17 05:54:55;;;;;;;;;;;16.20;99.90;;;;;;5066451;28;19930;-79
2023/08/17 05:57:20;;;;;;;;;;;16.20;99.90;;;;;;5065989;28;20358;-79
2023/08/17 05:59:46;;;;;;;;;;;16.20;99.90;;;;;;5037455;28;19955;-79
2023/08/17 06:02:11;;;;;;;;;;;16.20;99.90;;;;;;5038492;28;19925;-79
2023/08/17 06:04:37;;;;;;;;;;;16.20;99.90;;;;;;5055735;28;20335;-79
2023/08/17 06:07:03;;;;;;;;;;;16.30;99.90;;;;;;5049964;28;20001;-79
2023/08/17 06:09:28;;;;;;;;;;;16.40;99.90;;;;;;5063619;28;19933;-79
2023/08/17 06:11:54;;;;;;;;;;;16.40;99.90;;;;;;5033482;28;19971;-79
2023/08/17 06:14:19;;;;;;;;;;;16.40;99.90;;;;;;5032491;28;19929;-79
2023/08/17 06:16:45;;;;;;;;;;;16.40;99.90;;;;;;5037674;28;20428;-79
2023/08/17 06:19:10;;;;;;;;;;;16.50;99.90;;;;;;5047287;28;19933;-79
2023/08/17 06:21:36;;;;;;;;;;;16.50;99.90;;;;;;5049866;28;19929;-79
2023/08/17 06:24:02;;;;;;;;;;;16.60;99.90;;;;;;5048626;28;19935;-79
2023/08/17 06:26:27;;;;;;;;;;;16.60;99.90;;;;;;5022114;28;19929;-79
2023/08/17 06:28:53;;;;;;;;;;;16.70;99.90;;;;;;5034872;28;19929;-79
2023/08/17 06:31:18;;;;;;;;;;;16.80;99.90;;;;;;5039470;28;19933;-79
2023/08/17 06:33:44;;;;;;;;;;;16.90;99.90;;;;;;5064980;28;20277;-79
2023/08/17 06:36:13;;;;;;;;;;;17.00;99.90;;;;;;5017693;28;19925;-78
2023/08/17 06:38:38;;;;;;;;;;;17.10;99.90;;;;;;5031926;28;19928;-78
2023/08/17 06:41:04;;;;;;;;;;;17.20;99.90;;;;;;5013275;28;19935;-79
2023/08/17 06:43:29;;;;;;;;;;;17.30;99.90;;;;;;5069301;28;19933;-79
2023/08/17 06:45:56;;;;;;;;;;;17.40;99.90;;;;;;5002296;28;19961;-79
2023/08/17 06:48:21;;;;;;;;;;;17.40;99.90;;;;;;5017960;28;19931;-79
2023/08/17 06:50:47;;;;;;;;;;;17.50;99.90;;;;;;5002690;28;20420;-79
2023/08/17 06:53:12;;;;;;;;;;;17.40;99.90;;;;;;5017496;28;19925;-80
2023/08/17 06:55:38;;;;;;;;;;;17.50;99.90;;;;;;5037782;28;19941;-80
2023/08/17 06:58:03;;;;;;;;;;;17.50;99.90;;;;;;5016902;28;19939;-79
2023/08/17 07:00:29;;;;;;;;;;;17.50;99.90;;;;;;5055909;28;20000;-79
2023/08/17 07:02:54;;;;;;;;;;;17.60;99.90;;;;;;5028454;28;19993;-80
2023/08/17 07:05:20;;;;;;;;;;;17.60;99.90;;;;;;5069986;28;19988;-79
2023/08/17 07:07:46;;;;;;;;;;;17.70;99.90;;;;;;5024128;28;19932;-80
2023/08/17 07:10:11;;;;;;;;;;;17.70;99.90;;;;;;5033657;28;19936;-80
2023/08/17 07:12:37;;;;;;;;;;;17.80;99.90;;;;;;5046120;28;19924;-80
2023/08/17 07:15:04;;;;;;;;;;;17.80;99.90;;;;;;5002125;28;19941;-79
2023/08/17 07:17:29;;;;;;;;;;;17.80;99.90;;;;;;5034343;28;19929;-79
2023/08/17 07:19:55;;;;;;;;;;;17.90;99.90;;;;;;5015765;28;20117;-80
2023/08/17 07:22:21;;;;;;;;;;;17.90;99.90;;;;;;5063167;28;19929;-80
2023/08/17 07:24:46;;;;;;;;;;;17.90;99.90;;;;;;5032780;28;20027;-80
2023/08/17 07:27:12;;;;;;;;;;;18.00;99.90;;;;;;5037680;28;19932;-80
2023/08/17 07:29:37;;;;;;;;;;;18.00;99.90;;;;;;5007891;28;19992;-79
2023/08/17 07:32:03;;;;;;;;;;;18.00;99.90;;;;;;5053444;28;19929;-79
2023/08/17 07:34:30;;;;;;;;;;;18.10;99.90;;;;;;5036632;28;19991;-79
2023/08/17 07:36:56;;;;;;;;;;;18.20;99.90;;;;;;5016186;28;19929;-80
2023/08/17 07:39:22;;;;;;;;;;;18.20;99.90;;;;;;5015172;28;20469;-79
2023/08/17 07:41:48;;;;;;;;;;;18.20;99.90;;;;;;5028212;28;19964;-80
2023/08/17 07:44:13;;;;;;;;;;;18.20;99.90;;;;;;5036082;28;20095;-79
2023/08/17 07:46:39;;;;;;;;;;;18.10;99.90;;;;;;5016002;28;19933;-79
2023/08/17 07:49:04;;;;;;;;;;;18.10;99.90;;;;;;5035445;28;20487;-80
2023/08/17 07:51:33;;;;;;;;;;;18.20;99.90;;;;;;5036086;28;19957;-80
2023/08/17 07:53:59;;;;;;;;;;;18.20;99.90;;;;;;5035142;28;19929;-80
2023/08/17 07:56:25;;;;;;;;;;;18.20;99.90;;;;;;5012167;28;19928;-79
2023/08/17 07:58:50;;;;;;;;;;;18.20;99.90;;;;;;5045617;28;19963;-80
2023/08/17 08:01:16;;;;;;;;;;;18.20;99.90;;;;;;4998069;28;19933;-80
2023/08/17 08:03:42;;;;;;;;;;;18.30;99.90;;;;;;5034637;28;19925;-79
2023/08/17 08:06:07;;;;;;;;;;;18.30;99.90;;;;;;5051646;28;19992;-80
2023/08/17 08:08:33;;;;;;;;;;;18.30;99.90;;;;;;5032766;28;19925;-80
2023/08/17 08:10:58;;;;;;;;;;;18.30;99.90;;;;;;5048155;28;19929;-80
2023/08/17 08:13:26;;;;;;;;;;;18.40;99.90;;;;;;5036407;28;20213;-79
2023/08/17 08:15:51;;;;;;;;;;;18.90;99.90;;;;;;5052336;28;19952;-80
2023/08/17 08:18:17;;;;;;;;;;;19.40;99.90;;;;;;5048779;28;20000;-80
2023/08/17 08:20:43;;;;;;;;;;;19.70;99.90;;;;;;5029437;28;19950;-80
2023/08/17 08:23:08;;;;;;;;;;;19.80;99.90;;;;;;5030826;28;19928;-80
2023/08/17 08:25:34;;;;;;;;;;;19.90;99.90;;;;;;5020256;28;19929;-79
2023/08/17 08:27:59;;;;;;;;;;;19.90;99.90;;;;;;5052353;28;19976;-79
2023/08/17 08:30:25;;;;;;;;;;;19.90;99.90;;;;;;5034850;28;20295;-79
2023/08/17 08:32:51;;;;;;;;;;;20.00;99.90;;;;;;5058838;28;19936;-79
2023/08/17 08:35:17;;;;;;;;;;;20.10;99.90;;;;;;5023656;28;19925;-80
2023/08/17 08:37:42;;;;;;;;;;;20.10;99.90;;;;;;5020470;28;19932;-80
2023/08/17 08:40:13;;;;;;;;;;;19.90;99.90;;;;;;5037112;28;19989;-79
2023/08/17 08:42:38;;;;;;;;;;;19.80;99.90;;;;;;5033615;28;19925;-79
2023/08/17 08:45:04;;;;;;;;;;;19.70;99.90;;;;;;5020220;28;19972;-78
2023/08/17 08:47:32;;;;;;;;;;;19.70;99.90;;;;;;5064412;28;20458;-78
2023/08/17 08:49:57;;;;;;;;;;;19.80;99.90;;;;;;5018166;28;19933;-78
2023/08/17 08:52:25;;;;;;;;;;;20.00;99.90;;;;;;5036226;28;19929;-79
2023/08/17 08:54:54;;;;;;;;;;;20.10;99.90;;;;;;5032770;28;20401;-79
2023/08/17 08:57:20;;;;;;;;;;;20.20;99.90;;;;;;5056592;28;19929;-79
2023/08/17 08:59:47;;;;;;;;;;;20.20;99.90;;;;;;5056346;28;19936;-80
2023/08/17 09:02:14;;;;;;;;;;;20.10;99.90;;;;;;5021190;28;19976;-79
2023/08/17 09:04:41;;;;;;;;;;;19.90;99.90;;;;;;5030591;28;19925;-79
2023/08/17 09:07:08;;;;;;;;;;;19.80;99.90;;;;;;5072429;28;19932;-79
2023/08/17 09:09:35;;;;;;;;;;;19.70;99.90;;;;;;5029618;28;19925;-80
2023/08/17 09:12:00;;;;;;;;;;;19.70;99.90;;;;;;5038729;28;19935;-79
2023/08/17 09:14:26;;;;;;;;;;;19.60;99.90;;;;;;5056500;28;20370;-79
2023/08/17 09:16:52;;;;;;;;;;;19.50;99.90;;;;;;5039287;28;19925;-79
2023/08/17 09:19:18;;;;;;;;;;;19.40;99.90;;;;;;5056058;28;19929;-79
2023/08/17 09:21:44;;;;;;;;;;;19.30;99.90;;;;;;5021789;28;19925;-79
2023/08/17 09:24:12;;;;;;;;;;;19.20;99.90;;;;;;4992739;28;19932;-79
2023/08/17 09:26:38;;;;;;;;;;;19.10;99.90;;;;;;5038625;28;19939;-79
2023/08/17 09:29:16;;;;;;;;;;;19.00;99.90;;;;;;5051934;28;19925;-79
2023/08/17 09:31:41;;;;;;;;;;;19.00;99.90;;;;;;5023201;28;19956;-79
2023/08/17 09:34:07;;;;;;;;;;;18.90;99.90;;;;;;5041537;28;19939;-79
2023/08/17 09:36:35;;;;;;;;;;;19.00;99.90;;;;;;5053182;28;19925;-79
2023/08/17 09:39:01;;;;;;;;;;;19.00;99.90;;;;;;5039687;28;20008;-79
2023/08/17 09:41:26;;;;;;;;;;;19.00;99.90;;;;;;5038853;28;20019;-79
2023/08/17 09:43:54;;;;;;;;;;;19.10;99.90;;;;;;5033052;28;19925;-79
2023/08/17 09:46:19;;;;;;;;;;;19.10;99.90;;;;;;5023121;28;19932;-79
2023/08/17 09:48:45;;;;;;;;;;;19.20;99.90;;;;;;5046262;28;20300;-79
2023/08/17 09:51:14;;;;;;;;;;;19.20;99.90;;;;;;5039258;28;20483;-79
2023/08/17 09:53:40;;;;;;;;;;;19.30;99.90;;;;;;5017639;28;20055;-79
2023/08/17 09:56:07;;;;;;;;;;;19.30;99.90;;;;;;5005697;28;20377;-80
2023/08/17 09:58:33;;;;;;;;;;;19.30;99.90;;;;;;5032931;28;19932;-79
2023/08/17 10:01:00;;;;;;;;;;;19.30;99.90;;;;;;5066332;28;20734;-80
2023/08/17 10:03:27;;;;;;;;;;;19.40;99.90;;;;;;5071075;28;19971;-80
2023/08/17 10:05:58;;;;;;;;;;;19.50;99.90;;;;;;5022035;28;19925;-79
2023/08/17 10:08:25;;;;;;;;;;;19.50;99.90;;;;;;5019873;28;19925;-80
2023/08/17 10:10:51;;;;;;;;;;;19.50;99.90;;;;;;5054045;28;19980;-79
2023/08/17 10:13:41;;;;;;;;;;;19.60;99.90;;;;;;5022702;28;19932;-80
2023/08/17 10:16:07;;;;;;;;;;;19.50;99.90;;;;;;5039064;28;19971;-79
2023/08/17 10:18:39;;;;;;;;;;;19.50;99.90;;;;;;5053258;28;19933;-80
2023/08/17 10:21:12;;;;;;;;;;;19.50;99.90;;;;;;5049019;28;19925;-80
2023/08/17 10:23:38;;;;;;;;;;;19.60;99.90;;;;;;5018791;28;19929;-80
2023/08/17 10:26:04;;;;;;;;;;;19.80;99.90;;;;;;5036610;28;19932;-79
2023/08/17 10:28:31;;;;;;;;;;;20.00;99.90;;;;;;5020829;28;19937;-79
2023/08/17 10:30:57;;;;;;;;;;;20.20;99.90;;;;;;5069875;28;19928;-79
2023/08/17 10:33:24;;;;;;;;;;;20.30;99.90;;;;;;5000080;28;19925;-79
2023/08/17 10:35:50;;;;;;;;;;;20.30;99.90;;;;;;5053054;28;19925;-80
2023/08/17 10:38:17;;;;;;;;;;;20.20;99.90;;;;;;5015898;28;19937;-79
2023/08/17 10:40:42;;;;;;;;;;;20.10;99.90;;;;;;5032504;28;19939;-79
2023/08/17 10:43:08;;;;;;;;;;;20.00;99.90;;;;;;5042333;28;19984;-79
2023/08/17 10:45:35;;;;;;;;;;;19.90;99.90;;;;;;5019308;28;20047;-80
2023/08/17 10:48:07;;;;;;;;;;;19.80;99.90;;;;;;5038278;28;19929;-79
2023/08/17 10:50:33;;;;;;;;;;;19.70;99.90;;;;;;5024114;28;19933;-80
2023/08/17 10:53:04;;;;;;;;;;;19.70;99.90;;;;;;5016051;28;19999;-79
2023/08/17 10:55:36;;;;;;;;;;;19.60;99.90;;;;;;5032121;28;19941;-79
2023/08/17 10:58:02;;;;;;;;;;;19.60;99.90;;;;;;5049360;28;19929;-79
2023/08/17 11:00:33;;;;;;;;;;;19.60;99.90;;;;;;4998346;28;19933;-79
2023/08/17 11:02:59;;;;;;;;;;;19.60;99.90;;;;;;5062642;28;20408;-79
2023/08/17 11:05:43;;;;;;;;;;;19.70;99.90;;;;;;5016312;28;19925;-79
2023/08/17 11:08:28;;;;;;;;;;;19.80;99.90;;;;;;5049694;28;20627;-79
2023/08/17 11:10:57;;;;;;;;;;;19.90;99.90;;;;;;5034650;28;20031;-79
2023/08/17 11:13:23;;;;;;;;;;;20.00;99.90;;;;;;5049529;28;19947;-80
2023/08/17 11:15:49;;;;;;;;;;;20.10;99.90;;;;;;5037156;28;19933;-80
2023/08/17 11:18:15;;;;;;;;;;;20.20;99.90;;;;;;5071245;28;19936;-79
2023/08/17 11:20:41;;;;;;;;;;;20.30;99.90;;;;;;5050006;28;19976;-80
2023/08/17 11:23:09;;;;;;;;;;;20.50;99.90;;;;;;5021716;28;19932;-79
2023/08/17 11:25:36;;;;;;;;;;;20.60;99.90;;;;;;5050233;28;20019;-80
2023/08/17 11:28:02;;;;;;;;;;;20.70;99.90;;;;;;5037200;28;19992;-80
2023/08/17 11:30:28;;;;;;;;;;;20.80;99.90;;;;;;5035580;28;19925;-80
2023/08/17 11:32:54;;;;;;;;;;;20.80;99.90;;;;;;5014901;28;19993;-80
2023/08/17 11:35:20;;;;;;;;;;;20.90;99.90;;;;;;5032166;28;19940;-80
2023/08/17 11:37:45;;;;;;;;;;;20.80;99.90;;;;;;5035917;28;19925;-79
2023/08/17 11:40:11;;;;;;;;;;;20.60;99.90;;;;;;5032619;28;19931;-80
2023/08/17 11:42:37;;;;;;;;;;;20.50;99.90;;;;;;5018690;28;19932;-79
2023/08/17 11:45:03;;;;;;;;;;;20.40;99.90;;;;;;5033413;28;19929;-79
2023/08/17 11:47:29;;;;;;;;;;;20.30;99.90;;;;;;5020784;28;19951;-79
2023/08/17 11:50:02;;;;;;;;;;;20.30;99.90;;;;;;5036377;28;19925;-79
2023/08/17 11:52:28;;;;;;;;;;;20.20;99.90;;;;;;5053075;28;19925;-79
2023/08/17 11:54:57;;;;;;;;;;;20.20;99.90;;;;;;5019512;28;19972;-79
2023/08/17 11:57:23;;;;;;;;;;;20.30;99.90;;;;;;5069820;28;19925;-79
2023/08/17 11:59:52;;;;;;;;;;;20.30;99.90;;;;;;5037183;28;19929;-79
2023/08/17 12:02:17;;;;;;;;;;;20.30;99.90;;;;;;5033893;28;19925;-79
2023/08/17 12:04:44;;;;;;;;;;;20.30;99.90;;;;;;5001509;28;20004;-80
2023/08/17 12:07:09;;;;;;;;;;;20.30;99.90;;;;;;5065891;28;20444;-79
2023/08/17 12:09:35;;;;;;;;;;;20.40;99.90;;;;;;5057744;28;19936;-79
2023/08/17 12:12:01;;;;;;;;;;;20.50;99.90;;;;;;5035613;28;19932;-79
2023/08/17 12:14:27;;;;;;;;;;;20.50;99.90;;;;;;5041157;28;20016;-79
2023/08/17 12:16:56;;;;;;;;;;;20.50;99.90;;;;;;5057050;28;19999;-78
2023/08/17 12:19:21;;;;;;;;;;;20.50;99.90;;;;;;5056706;28;19929;-79
2023/08/17 12:21:50;;;;;;;;;;;20.50;99.90;;;;;;5040559;28;19925;-79
2023/08/17 12:24:16;;;;;;;;;;;20.50;99.90;;;;;;5019533;28;19925;-79
2023/08/17 12:26:43;;;;;;;;;;;20.50;99.90;;;;;;5034224;28;20277;-79
2023/08/17 12:29:09;;;;;;;;;;;20.40;99.90;;;;;;5023442;28;19981;-79
2023/08/17 12:31:35;;;;;;;;;;;20.40;99.90;;;;;;5030388;28;19975;-79
2023/08/17 12:34:01;;;;;;;;;;;20.40;99.90;;;;;;5070655;28;19925;-79
2023/08/17 12:36:26;;;;;;;;;;;20.40;99.90;;;;;;5023800;28;19925;-79
2023/08/17 12:38:52;;;;;;;;;;;20.50;99.90;;;;;;5040782;28;20382;-79
2023/08/17 12:41:17;;;;;;;;;;;20.50;99.90;;;;;;5055526;28;20010;-78
2023/08/17 12:43:43;;;;;;;;;;;20.50;99.90;;;;;;5004689;28;19925;-79
2023/08/17 12:46:10;;;;;;;;;;;20.60;99.90;;;;;;5072159;28;19937;-79
2023/08/17 12:48:36;;;;;;;;;;;20.60;99.90;;;;;;5055953;28;20376;-80
2023/08/17 12:51:02;;;;;;;;;;;20.50;99.90;;;;;;5039215;28;19925;-79
2023/08/17 12:53:27;;;;;;;;;;;20.50;99.90;;;;;;5040115;28;20398;-78
2023/08/17 12:55:53;;;;;;;;;;;20.40;99.90;;;;;;5039530;28;19932;-79
2023/08/17 12:58:19;;;;;;;;;;;20.30;99.90;;;;;;5056178;28;19929;-79
2023/08/17 13:00:44;;;;;;;;;;;20.20;99.90;;;;;;5040226;28;19932;-79
2023/08/17 13:03:10;;;;;;;;;;;20.20;99.90;;;;;;5020824;28;19925;-79
2023/08/17 13:05:35;;;;;;;;;;;20.20;99.90;;;;;;5034754;28;19925;-79
2023/08/17 13:08:01;;;;;;;;;;;20.30;99.90;;;;;;5006751;28;19925;-80
2023/08/17 13:10:27;;;;;;;;;;;20.50;99.90;;;;;;5039860;28;19935;-79
2023/08/17 13:12:54;;;;;;;;;;;20.60;99.90;;;;;;5055961;28;19936;-79
2023/08/17 13:15:21;;;;;;;;;;;20.70;99.90;;;;;;5038679;28;19996;-79
2023/08/17 13:17:46;;;;;;;;;;;20.70;99.90;;;;;;5039186;28;19932;-79
2023/08/17 13:20:12;;;;;;;;;;;20.70;99.90;;;;;;5072610;28;19925;-80
2023/08/17 13:22:38;;;;;;;;;;;20.60;99.90;;;;;;5042100;28;21011;-80
2023/08/17 13:25:04;;;;;;;;;;;20.60;99.90;;;;;;5025743;28;19932;-79
2023/08/17 13:27:29;;;;;;;;;;;20.60;99.90;;;;;;5037862;28;19933;-79
2023/08/17 13:29:55;;;;;;;;;;;20.60;99.90;;;;;;5056259;28;19929;-78
2023/08/17 13:32:20;;;;;;;;;;;20.60;99.90;;;;;;5038366;28;19925;-78
2023/08/17 13:34:46;;;;;;;;;;;20.60;99.90;;;;;;5040779;28;19929;-78
2023/08/17 13:37:11;;;;;;;;;;;20.70;99.90;;;;;;5053005;28;19934;-78
2023/08/17 13:39:37;;;;;;;;;;;20.80;99.90;;;;;;5060276;28;19925;-78
2023/08/17 13:42:03;;;;;;;;;;;20.80;99.90;;;;;;5054877;28;19929;-79
2023/08/17 13:44:28;;;;;;;;;;;20.90;99.90;;;;;;5042660;28;19929;-78
2023/08/17 13:46:54;;;;;;;;;;;20.90;99.90;;;;;;5003432;28;19961;-78
2023/08/17 13:49:20;;;;;;;;;;;20.90;99.90;;;;;;5066132;28;19967;-78
2023/08/17 13:51:45;;;;;;;;;;;21.00;99.90;;;;;;5028161;28;19975;-78
2023/08/17 13:54:11;;;;;;;;;;;21.00;99.90;;;;;;5037640;28;20056;-78
2023/08/17 13:56:36;;;;;;;;;;;21.00;99.90;;;;;;5039652;28;20405;-78
2023/08/17 13:59:02;;;;;;;;;;;20.90;99.90;;;;;;5038415;28;19925;-78
2023/08/17 14:01:28;;;;;;;;;;;20.90;99.90;;;;;;5018888;28;19943;-78
2023/08/17 14:03:53;;;;;;;;;;;20.90;99.90;;;;;;5021199;28;19987;-79
2023/08/17 14:06:19;;;;;;;;;;;20.80;99.90;;;;;;5036155;28;19952;-78
2023/08/17 14:08:44;;;;;;;;;;;20.80;99.90;;;;;;5038592;28;19925;-78
2023/08/17 14:11:10;;;;;;;;;;;20.80;99.90;;;;;;5021490;28;19940;-78